createdAt,value
2018-06-25T00:00:53.877Z,51.42
2018-06-25T00:03:26.315Z,49.89
2018-06-25T00:05:55.776Z,50.81
2018-06-25T00:08:26.107Z,50.69
2018-06-25T00:10:56.373Z,49.81
2018-06-25T00:13:28.133Z,50.34
2018-06-25T00:15:57.614Z,50.74
2018-06-25T00:18:27.070Z,50.66
2018-06-25T00:20:57.288Z,51.48
2018-06-25T00:23:28.301Z,52.23
2018-06-25T00:25:57.778Z,51.28
2018-06-25T00:28:30.157Z,51.81
2018-06-25T00:31:00.397Z,50.69
2018-06-25T00:33:31.382Z,51.10
2018-06-25T00:36:01.600Z,52.03
2018-06-25T00:38:31.808Z,52.62
2018-06-25T00:41:04.266Z,52.03
2018-06-25T00:43:33.745Z,51.27
2018-06-25T00:46:03.321Z,51.66
2018-06-25T00:48:33.543Z,51.43
2018-06-25T00:51:05.318Z,52.62
2018-06-25T00:53:37.727Z,52.79
2018-06-25T00:56:07.162Z,52.00
2018-06-25T00:59:46.524Z,51.38
2018-06-25T01:02:18.936Z,50.54
2018-06-25T01:04:48.427Z,51.73
2018-06-25T01:07:20.825Z,52.10
2018-06-25T01:09:50.261Z,51.21
2018-06-25T01:12:22.719Z,51.65
2018-06-25T01:14:52.156Z,52.29
2018-06-25T01:17:22.394Z,52.99
2018-06-25T01:19:53.409Z,52.10
2018-06-25T01:22:22.882Z,51.18
2018-06-25T01:24:52.304Z,51.92
2018-06-25T01:27:22.525Z,52.17
2018-06-25T01:29:54.328Z,52.68
2018-06-25T01:32:24.636Z,52.31
2018-06-25T01:34:54.100Z,52.84
2018-06-25T01:37:23.531Z,52.43
2018-06-25T01:39:52.995Z,51.66
2018-06-25T01:42:22.452Z,52.77
2018-06-25T01:44:54.841Z,52.75
2018-06-25T01:47:24.301Z,53.51
2018-06-25T01:49:53.745Z,53.21
2018-06-25T01:52:23.195Z,52.74
2018-06-25T01:54:52.657Z,53.06
2018-06-25T01:57:23.645Z,52.29
2018-06-25T01:59:56.053Z,51.40
2018-06-25T02:02:25.485Z,51.81
2018-06-25T02:04:55.784Z,53.77
2018-06-25T02:07:25.205Z,53.58
2018-06-25T02:09:57.616Z,53.25
2018-06-25T02:12:29.973Z,53.23
2018-06-25T02:14:59.474Z,53.74
2018-06-25T02:17:31.861Z,54.52
2018-06-25T02:20:01.371Z,53.98
2018-06-25T02:22:30.820Z,53.45
2018-06-25T02:25:00.244Z,53.00
2018-06-25T02:27:32.680Z,53.95
2018-06-25T02:30:02.116Z,54.16
2018-06-25T02:32:33.897Z,52.83
2018-06-25T02:35:04.192Z,53.71
2018-06-25T02:37:36.095Z,54.07
2018-06-25T02:40:07.085Z,53.81
2018-06-25T02:42:38.078Z,53.62
2018-06-25T02:45:10.475Z,53.94
2018-06-25T02:47:39.945Z,53.42
2018-06-25T02:50:10.144Z,52.99
2018-06-25T02:52:39.632Z,53.31
2018-06-25T02:55:10.629Z,53.38
2018-06-25T02:57:40.125Z,52.69
2018-06-25T03:00:11.071Z,52.44
2018-06-25T03:02:41.268Z,52.25
2018-06-25T03:05:10.745Z,53.21
2018-06-25T03:07:43.128Z,53.53
2018-06-25T03:10:12.618Z,53.98
2018-06-25T03:12:45.011Z,53.03
2018-06-25T03:15:15.274Z,53.78
2018-06-25T03:17:47.037Z,53.37
2018-06-25T03:20:19.492Z,54.34
2018-06-25T03:22:49.052Z,54.71
2018-06-25T03:25:18.475Z,54.57
2018-06-25T03:27:47.909Z,54.07
2018-06-25T03:30:18.909Z,53.93
2018-06-25T03:32:49.123Z,54.09
2018-06-25T03:35:19.341Z,54.42
2018-06-25T03:37:50.035Z,53.98
2018-06-25T03:40:21.209Z,53.99
2018-06-25T03:42:52.245Z,54.48
2018-06-25T03:45:22.448Z,54.60
2018-06-25T03:47:51.909Z,53.23
2018-06-25T03:50:22.192Z,53.47
2018-06-25T03:52:51.697Z,53.94
2018-06-25T03:55:24.377Z,54.01
2018-06-25T03:57:54.021Z,54.65
2018-06-25T04:00:24.781Z,53.69
2018-06-25T04:02:57.221Z,49.68
2018-06-25T04:05:28.270Z,51.05
2018-06-25T04:07:58.492Z,50.76
2018-06-25T04:10:28.001Z,51.23
2018-06-25T04:12:59.168Z,49.53
2018-06-25T04:15:28.621Z,51.56
2018-06-25T04:17:58.881Z,51.38
2018-06-25T04:20:30.672Z,52.04
2018-06-25T04:23:00.900Z,51.74
2018-06-25T04:25:32.727Z,51.97
2018-06-25T04:28:02.178Z,52.01
2018-06-25T04:30:35.195Z,51.85
2018-06-25T04:33:06.936Z,52.50
2018-06-25T04:35:39.314Z,52.27
2018-06-25T04:38:11.728Z,51.93
2018-06-25T04:40:41.172Z,51.80
2018-06-25T04:43:12.181Z,52.25
2018-06-25T04:45:43.136Z,52.27
2018-06-25T04:48:14.176Z,52.06
2018-06-25T04:50:46.577Z,53.23
2018-06-25T04:53:18.960Z,52.61
2018-06-25T04:55:50.732Z,51.96
2018-06-25T04:58:21.744Z,51.63
2018-06-25T05:00:51.970Z,52.79
2018-06-25T05:03:24.347Z,52.13
2018-06-25T05:05:56.142Z,51.46
2018-06-25T05:08:25.620Z,52.47
2018-06-25T05:10:55.801Z,51.14
2018-06-25T05:13:25.252Z,51.08
2018-06-25T05:15:57.637Z,51.65
2018-06-25T05:18:27.117Z,51.94
2018-06-25T05:20:58.887Z,51.93
2018-06-25T05:23:29.163Z,51.33
2018-06-25T05:26:00.897Z,51.96
2018-06-25T05:28:31.192Z,52.05
2018-06-25T05:31:02.308Z,52.12
2018-06-25T05:33:34.768Z,51.50
2018-06-25T05:36:04.195Z,51.52
2018-06-25T05:38:35.973Z,51.87
2018-06-25T05:41:05.427Z,51.06
2018-06-25T05:43:34.872Z,51.91
2018-06-25T05:46:04.353Z,53.13
2018-06-25T05:48:33.837Z,51.85
2018-06-25T05:51:03.599Z,53.24
2018-06-25T05:53:33.833Z,51.78
2018-06-25T05:56:03.272Z,53.10
2018-06-25T05:58:32.729Z,53.08
2018-06-25T06:01:02.169Z,51.83
2018-06-25T06:03:31.636Z,52.48
2018-06-25T06:06:01.093Z,50.70
2018-06-25T06:08:30.536Z,52.98
2018-06-25T06:10:59.960Z,52.75
2018-06-25T06:13:32.384Z,51.68
2018-06-25T06:16:02.634Z,52.27
2018-06-25T06:18:34.392Z,52.49
2018-06-25T06:21:04.692Z,52.94
2018-06-25T06:23:37.045Z,52.98
2018-06-25T06:26:08.845Z,52.64
2018-06-25T06:28:38.773Z,52.09
2018-06-25T06:31:09.768Z,53.27
2018-06-25T06:33:40.772Z,53.23
2018-06-25T06:36:11.750Z,52.02
2018-06-25T06:38:41.207Z,53.09
2018-06-25T06:41:11.458Z,52.70
2018-06-25T06:43:40.973Z,50.99
2018-06-25T06:46:10.422Z,49.82
2018-06-25T06:48:41.425Z,52.21
2018-06-25T06:51:11.616Z,49.74
2018-06-25T06:53:41.132Z,50.83
2018-06-25T06:56:11.956Z,52.49
2018-06-25T06:58:41.452Z,52.32
2018-06-25T07:01:12.422Z,52.12
2018-06-25T07:03:42.648Z,53.24
2018-06-25T07:06:12.085Z,54.28
2018-06-25T07:08:41.596Z,51.90
2018-06-25T07:11:11.020Z,53.85
2018-06-25T07:13:40.480Z,52.95
2018-06-25T07:16:09.993Z,51.38
2018-06-25T07:18:39.434Z,51.22
2018-06-25T07:21:11.229Z,52.13
2018-06-25T07:23:40.665Z,53.23
2018-06-25T07:26:11.020Z,52.86
2018-06-25T07:28:41.231Z,51.48
2018-06-25T07:31:12.308Z,52.69
2018-06-25T07:33:43.272Z,52.82
2018-06-25T07:36:13.510Z,52.21
2018-06-25T07:38:42.929Z,52.75
2018-06-25T07:41:14.764Z,51.49
2018-06-25T07:43:45.238Z,53.35
2018-06-25T07:46:15.493Z,51.70
2018-06-25T07:48:45.026Z,51.83
2018-06-25T07:51:15.274Z,52.04
2018-06-25T07:53:47.084Z,52.80
2018-06-25T07:56:16.539Z,52.80
2018-06-25T07:58:46.869Z,52.72
2018-06-25T08:01:16.332Z,52.24
2018-06-25T08:03:45.830Z,53.38
2018-06-25T08:06:15.193Z,52.59
2018-06-25T08:08:44.643Z,51.61
2018-06-25T08:11:14.230Z,52.07
2018-06-25T08:13:44.656Z,52.61
2018-06-25T08:16:14.146Z,50.56
2018-06-25T08:18:43.544Z,50.65
2018-06-25T08:21:12.969Z,50.37
2018-06-25T08:23:42.452Z,51.18
2018-06-25T08:26:11.867Z,49.42
2018-06-25T08:28:44.342Z,49.71
2018-06-25T08:31:13.784Z,50.16
2018-06-25T08:33:43.335Z,49.98
2018-06-25T08:36:12.654Z,49.45
2018-06-25T08:38:42.130Z,48.90
2018-06-25T08:41:12.415Z,49.80
2018-06-25T08:43:44.145Z,49.72
2018-06-25T08:46:13.684Z,49.94
2018-06-25T08:48:43.921Z,48.84
2018-06-25T08:51:13.364Z,49.12
2018-06-25T08:53:42.863Z,48.06
2018-06-25T08:56:12.304Z,48.81
2018-06-25T08:58:44.740Z,49.32
2018-06-25T09:01:14.200Z,48.90
2018-06-25T09:03:46.571Z,47.95
2018-06-25T09:06:16.098Z,48.21
2018-06-25T09:08:47.098Z,48.86
2018-06-25T09:11:18.149Z,47.45
2018-06-25T09:13:47.590Z,46.92
2018-06-25T09:16:17.100Z,46.75
2018-06-25T09:18:46.544Z,47.11
2018-06-25T09:21:16.001Z,47.96
2018-06-25T09:23:47.006Z,47.67
2018-06-25T09:26:17.959Z,46.83
2018-06-25T09:28:48.484Z,47.50
2018-06-25T09:31:18.790Z,47.77
2018-06-25T09:33:48.277Z,46.91
2018-06-25T09:36:17.702Z,47.03
2018-06-25T09:38:47.153Z,45.57
2018-06-25T09:41:16.696Z,47.02
2018-06-25T09:43:47.583Z,47.25
2018-06-25T09:46:18.597Z,45.64
2018-06-25T09:48:48.020Z,47.35
2018-06-25T09:51:17.474Z,46.93
2018-06-25T09:53:46.886Z,46.95
2018-06-25T09:56:19.379Z,46.49
2018-06-25T09:58:48.816Z,45.72
2018-06-25T10:01:18.253Z,46.23
2018-06-25T10:03:47.882Z,45.93
2018-06-25T10:06:17.316Z,46.52
2018-06-25T10:08:47.529Z,46.33
2018-06-25T10:11:19.910Z,45.71
2018-06-25T10:13:49.349Z,46.01
2018-06-25T10:16:21.139Z,46.41
2018-06-25T10:18:50.584Z,46.42
2018-06-25T10:21:21.641Z,46.38
2018-06-25T10:23:51.020Z,45.79
2018-06-25T10:26:21.220Z,45.27
2018-06-25T10:28:50.705Z,44.79
2018-06-25T10:31:20.939Z,45.60
2018-06-25T10:33:50.388Z,46.23
2018-06-25T10:36:19.795Z,44.78
2018-06-25T10:38:49.307Z,45.83
2018-06-25T10:41:18.783Z,45.71
2018-06-25T10:43:48.274Z,44.99
2018-06-25T10:46:20.674Z,45.96
2018-06-25T10:48:50.911Z,45.88
2018-06-25T10:51:21.083Z,45.96
2018-06-25T10:53:50.592Z,46.13
2018-06-25T10:56:20.812Z,45.99
2018-06-25T10:58:50.280Z,46.41
2018-06-25T11:01:20.514Z,45.76
2018-06-25T11:03:49.962Z,46.03
2018-06-25T11:06:20.200Z,45.86
2018-06-25T11:08:49.657Z,45.99
2018-06-25T11:11:20.643Z,46.24
2018-06-25T11:13:50.128Z,46.01
2018-06-25T11:16:20.288Z,45.33
2018-06-25T11:18:49.969Z,46.12
2018-06-25T11:21:20.268Z,45.98
2018-06-25T11:23:49.723Z,45.78
2018-06-25T11:26:19.902Z,45.06
2018-06-25T11:28:50.152Z,45.73
2018-06-25T11:31:20.409Z,44.18
2018-06-25T11:33:52.931Z,44.13
2018-06-25T11:36:23.161Z,44.96
2018-06-25T11:38:55.612Z,44.58
2018-06-25T11:41:25.070Z,44.82
2018-06-25T11:43:55.269Z,44.86
2018-06-25T11:46:25.523Z,44.71
2018-06-25T11:48:57.279Z,44.18
2018-06-25T11:51:29.704Z,44.79
2018-06-25T11:53:59.129Z,44.02
2018-06-25T11:56:31.532Z,44.40
2018-06-25T11:59:02.012Z,44.18
2018-06-25T12:01:33.020Z,44.39
2018-06-25T12:04:02.500Z,44.51
2018-06-25T12:06:34.287Z,43.87
2018-06-25T12:09:05.045Z,44.20
2018-06-25T12:11:34.500Z,44.84
2018-06-25T12:14:06.988Z,44.30
2018-06-25T12:16:37.984Z,44.43
2018-06-25T12:19:09.058Z,44.02
2018-06-25T12:21:41.446Z,42.96
2018-06-25T12:24:12.440Z,43.37
2018-06-25T12:26:44.212Z,43.07
2018-06-25T12:29:13.674Z,42.95
2018-06-25T12:31:43.100Z,42.23
2018-06-25T12:34:13.336Z,42.30
2018-06-25T12:36:45.765Z,42.06
2018-06-25T12:39:18.187Z,41.57
2018-06-25T12:41:48.391Z,41.95
2018-06-25T12:44:19.269Z,42.02
2018-06-25T12:46:51.685Z,41.91
2018-06-25T12:49:21.918Z,41.83
2018-06-25T12:51:54.292Z,41.41
2018-06-25T12:54:23.779Z,41.44
2018-06-25T12:56:55.557Z,41.21
2018-06-25T12:59:27.933Z,41.55
2018-06-25T13:02:00.377Z,41.48
2018-06-25T13:04:32.784Z,41.40
2018-06-25T13:07:02.259Z,41.36
2018-06-25T13:09:34.678Z,41.27
2018-06-25T13:12:06.445Z,40.71
2018-06-25T13:14:39.304Z,40.36
2018-06-25T13:17:11.081Z,40.09
2018-06-25T13:19:43.473Z,40.00
2018-06-25T13:22:12.969Z,39.85
2018-06-25T13:24:45.565Z,39.42
2018-06-25T13:27:15.037Z,38.94
2018-06-25T13:29:47.557Z,39.20
2018-06-25T13:32:17.013Z,38.87
2018-06-25T13:34:47.245Z,38.82
2018-06-25T13:37:16.786Z,38.23
2018-06-25T13:39:47.144Z,37.92
2018-06-25T13:42:18.841Z,38.58
2018-06-25T13:44:48.317Z,38.62
2018-06-25T13:47:20.716Z,38.43
2018-06-25T13:49:50.206Z,38.49
2018-06-25T13:52:21.960Z,38.50
2018-06-25T13:54:52.244Z,37.63
2018-06-25T13:57:23.982Z,37.69
2018-06-25T13:59:54.310Z,37.68
2018-06-25T14:02:24.565Z,37.63
2018-06-25T14:04:56.315Z,37.78
2018-06-25T14:07:25.777Z,38.07
2018-06-25T14:09:56.040Z,37.74
2018-06-25T14:12:25.545Z,37.07
2018-06-25T14:14:55.079Z,36.89
2018-06-25T14:17:25.322Z,36.96
2018-06-25T14:19:57.808Z,37.00
2018-06-25T14:22:27.257Z,37.12
2018-06-25T14:24:59.036Z,36.88
2018-06-25T14:28:29.670Z,36.65
2018-06-25T14:31:21.176Z,36.56
2018-06-25T14:34:20.888Z,36.94
2018-06-25T14:36:51.122Z,36.22
2018-06-25T14:39:20.602Z,36.55
2018-06-25T14:41:50.872Z,36.29
2018-06-25T14:44:20.319Z,36.20
2018-06-25T14:46:52.751Z,36.90
2018-06-25T14:49:22.235Z,36.57
2018-06-25T14:51:54.687Z,36.14
2018-06-25T14:54:28.115Z,35.74
2018-06-25T14:56:58.958Z,36.30
2018-06-25T14:59:29.339Z,36.63
2018-06-25T15:02:00.557Z,36.74
2018-06-25T15:04:30.021Z,36.54
2018-06-25T15:06:59.486Z,36.71
2018-06-25T15:09:31.894Z,36.67
2018-06-25T15:12:02.215Z,37.03
2018-06-25T15:14:32.446Z,38.40
2018-06-25T15:17:03.445Z,37.99
2018-06-25T15:19:33.755Z,37.43
2018-06-25T15:22:06.978Z,37.61
2018-06-25T15:24:37.444Z,38.02
2018-06-25T15:27:09.922Z,37.64
2018-06-25T15:29:42.406Z,38.09
2018-06-25T15:32:12.667Z,38.57
2018-06-25T15:34:45.075Z,38.10
2018-06-25T15:37:14.574Z,37.78
2018-06-25T15:39:45.580Z,37.25
2018-06-25T15:42:15.054Z,38.37
2018-06-25T15:44:45.314Z,38.78
2018-06-25T15:47:14.759Z,38.48
2018-06-25T15:49:45.770Z,38.09
2018-06-25T15:52:15.974Z,38.58
2018-06-25T15:54:49.288Z,38.70
2018-06-25T15:57:21.653Z,38.57
2018-06-25T15:59:53.504Z,39.31
2018-06-25T16:02:22.909Z,40.00
2018-06-25T16:04:52.357Z,39.16
2018-06-25T16:07:22.592Z,38.89
2018-06-25T16:09:55.050Z,39.00
2018-06-25T16:12:34.580Z,38.73
2018-06-25T16:15:04.044Z,37.40
2018-06-25T16:17:33.526Z,38.13
2018-06-25T16:20:04.634Z,38.70
2018-06-25T16:22:34.042Z,38.27
2018-06-25T16:25:06.439Z,37.04
2018-06-25T16:27:35.856Z,36.58
2018-06-25T16:30:07.004Z,36.42
2018-06-25T16:32:36.508Z,35.45
2018-06-25T16:35:08.977Z,35.29
2018-06-25T16:37:38.417Z,35.53
2018-06-25T16:40:08.717Z,36.44
2018-06-25T16:42:38.148Z,36.96
2018-06-25T16:45:07.621Z,36.18
2018-06-25T16:47:37.089Z,36.37
2018-06-25T16:52:36.037Z,34.73
2018-06-25T16:55:08.448Z,34.76
2018-06-25T16:57:37.954Z,35.19
2018-06-25T17:00:07.728Z,35.22
2018-06-25T17:02:37.180Z,34.37
2018-06-25T17:05:09.621Z,33.86
2018-06-25T17:07:39.091Z,34.42
2018-06-25T17:10:11.493Z,34.50
2018-06-25T17:12:43.903Z,34.41
2018-06-25T17:15:13.321Z,33.78
2018-06-25T17:17:45.752Z,34.65
2018-06-25T17:20:15.257Z,33.54
2018-06-25T17:22:45.528Z,33.68
2018-06-25T17:25:15.753Z,34.60
2018-06-25T17:27:45.964Z,34.58
2018-06-25T17:30:15.490Z,35.05
2018-06-25T17:32:45.711Z,34.37
2018-06-25T17:35:15.141Z,34.59
2018-06-25T17:37:46.134Z,34.11
2018-06-25T17:40:15.570Z,34.22
2018-06-25T17:42:45.821Z,34.21
2018-06-25T17:45:15.268Z,34.92
2018-06-25T17:47:45.503Z,35.22
2018-06-25T17:50:18.499Z,35.22
2018-06-25T17:52:50.291Z,35.59
2018-06-25T17:55:20.541Z,35.00
2018-06-25T17:57:51.525Z,34.34
2018-06-25T18:00:21.757Z,34.59
2018-06-25T18:02:51.313Z,34.85
2018-06-25T18:05:22.304Z,34.55
2018-06-25T18:07:54.718Z,35.45
2018-06-25T18:10:24.181Z,35.48
2018-06-25T18:12:56.621Z,35.19
2018-06-25T18:15:26.846Z,35.32
2018-06-25T18:17:57.866Z,35.74
2018-06-25T18:20:27.340Z,35.06
2018-06-25T18:22:56.768Z,35.41
2018-06-25T18:25:29.271Z,36.10
2018-06-25T18:27:59.473Z,35.72
2018-06-25T18:30:31.851Z,35.94
2018-06-25T18:33:01.397Z,36.63
2018-06-25T18:35:33.865Z,37.29
2018-06-25T18:38:06.323Z,36.21
2018-06-25T18:40:35.765Z,36.51
2018-06-25T18:43:05.553Z,36.68
2018-06-25T18:45:35.055Z,32.90
2018-06-25T18:48:05.365Z,32.90
2018-06-25T18:50:34.814Z,32.90
2018-06-25T18:53:04.292Z,32.90
2018-06-25T18:55:35.290Z,32.90
2018-06-25T18:58:08.144Z,32.90
2018-06-25T19:00:37.748Z,32.90
2018-06-25T19:03:10.333Z,32.90
2018-06-25T19:05:39.861Z,32.90
2018-06-25T19:08:10.845Z,32.90
2018-06-25T19:10:43.312Z,32.90
2018-06-25T19:13:13.553Z,32.90
2018-06-25T19:15:43.786Z,32.90
2018-06-25T19:18:13.301Z,32.90
2018-06-25T19:20:45.729Z,32.90
2018-06-25T19:23:18.144Z,32.90
2018-06-25T19:25:48.384Z,32.90
2018-06-25T19:28:18.634Z,32.90
2018-06-25T19:30:48.904Z,32.90
2018-06-25T19:33:21.297Z,32.90
2018-06-25T19:35:53.691Z,32.90
2018-06-25T19:38:23.181Z,32.90
2018-06-25T19:41:06.976Z,40.90
2018-06-25T19:43:36.433Z,40.97
2018-06-25T19:46:06.790Z,40.37
2018-06-25T19:48:38.555Z,40.41
2018-06-25T19:51:08.896Z,41.15
2018-06-25T19:53:41.335Z,41.23
2018-06-25T19:56:10.841Z,42.57
2018-06-25T19:58:40.305Z,43.20
2018-06-25T20:01:09.783Z,43.52
2018-06-25T20:03:39.300Z,45.89
2018-06-25T20:06:08.815Z,46.27
2018-06-25T20:08:38.346Z,46.50
2018-06-25T20:11:08.780Z,47.54
2018-06-25T20:13:38.221Z,49.29
2018-06-25T20:16:10.761Z,48.27
2018-06-25T20:18:40.247Z,49.21
2018-06-25T20:21:10.492Z,49.99
2018-06-25T20:23:39.932Z,48.65
2018-06-25T20:26:12.562Z,48.99
2018-06-25T20:28:42.685Z,50.67
2018-06-25T20:31:12.173Z,51.09
2018-06-25T20:33:41.643Z,51.88
2018-06-25T20:36:11.298Z,52.20
2018-06-25T20:38:40.869Z,51.02
2018-06-25T20:41:11.118Z,53.71
2018-06-25T20:43:40.593Z,55.83
2018-06-25T20:46:10.045Z,56.86
2018-06-25T20:48:39.520Z,56.49
2018-06-25T20:51:11.428Z,52.26
2018-06-25T20:53:43.257Z,53.54
2018-06-25T20:56:13.476Z,54.68
2018-06-25T20:58:45.336Z,54.70
2018-06-25T21:01:14.807Z,54.70
2018-06-25T21:03:44.250Z,55.62
2018-06-25T21:06:16.216Z,55.46
2018-06-25T21:08:45.665Z,54.00
2018-06-25T21:11:15.171Z,53.17
2018-06-25T21:13:47.655Z,56.73
2018-06-25T21:16:17.148Z,52.72
2018-06-25T21:18:47.396Z,52.77
2018-06-25T21:21:16.930Z,53.79
2018-06-25T21:23:47.160Z,55.59
2018-06-25T21:26:19.607Z,53.91
2018-06-25T21:28:49.057Z,54.18
2018-06-25T21:31:19.264Z,54.16
2018-06-25T21:33:48.702Z,53.46
2018-06-25T21:36:18.241Z,54.87
2018-06-25T21:38:50.839Z,54.84
2018-06-25T21:41:21.024Z,54.87
2018-06-25T21:43:51.250Z,56.55
2018-06-25T21:46:23.761Z,55.27
2018-06-25T21:48:56.245Z,54.50
2018-06-25T21:51:28.840Z,56.30
2018-06-25T21:53:59.798Z,55.96
2018-06-25T21:56:30.011Z,55.82
2018-06-25T21:58:59.464Z,55.12
2018-06-25T22:01:31.832Z,50.55
2018-06-25T22:04:04.244Z,47.34
2018-06-25T22:06:36.036Z,46.18
2018-06-25T22:09:05.771Z,45.31
2018-06-25T22:11:45.524Z,45.10
2018-06-25T22:14:14.977Z,44.58
2018-06-25T22:16:45.800Z,44.86
2018-06-25T22:19:16.237Z,45.05
2018-06-25T22:21:45.986Z,45.22
2018-06-25T22:24:15.723Z,44.62
2018-06-25T22:26:47.510Z,44.41
2018-06-25T22:29:19.948Z,44.21
2018-06-25T22:31:50.337Z,43.94
2018-06-25T22:34:20.877Z,43.98
2018-06-25T22:36:50.696Z,44.51
2018-06-25T22:39:23.094Z,42.84
2018-06-25T22:41:53.434Z,42.98
2018-06-25T22:44:23.437Z,43.37
2018-06-25T22:46:54.252Z,44.16
2018-06-25T22:49:24.747Z,43.50
2018-06-25T22:51:54.280Z,43.71
2018-06-25T22:54:23.816Z,43.65
2018-06-25T22:56:53.365Z,44.24
2018-06-25T22:59:22.930Z,44.19
2018-06-25T23:01:52.441Z,44.33
2018-06-25T23:04:23.534Z,43.85
2018-06-25T23:07:15.203Z,43.96
2018-06-25T23:09:44.716Z,44.47
2018-06-25T23:12:14.232Z,43.74
2018-06-25T23:14:43.815Z,43.84
2018-06-25T23:17:14.381Z,45.19
2018-06-25T23:19:46.291Z,45.36
2018-06-25T23:22:16.365Z,45.03
2018-06-25T23:24:45.971Z,45.93
2018-06-25T23:27:15.545Z,45.37
2018-06-25T23:29:45.121Z,45.40
2018-06-25T23:32:14.696Z,45.04
2018-06-25T23:34:44.561Z,44.85
2018-06-25T23:37:14.190Z,44.04
2018-06-25T23:39:43.692Z,43.15
2018-06-25T23:42:13.507Z,42.91
2018-06-25T23:44:43.211Z,43.49
2018-06-25T23:47:13.598Z,43.20
2018-06-25T23:49:43.934Z,42.47
2018-06-25T23:52:13.830Z,43.26
2018-06-25T23:54:43.336Z,43.31
2018-06-25T23:57:13.791Z,42.64
2018-06-25T23:59:43.296Z,43.23
